Time,TemperatureF,DewpointF,PressureIn,WindDirection,WindDirectionDegrees,WindSpeedMPH,WindSpeedGustMPH,Humidity,HourlyPrecipIn,Conditions,Clouds,dailyrainin,SoftwareType,DateUTC
2013-05-20 00:02:00,63.0,56.0,-100.00,ESE,118,0.0,2.0,78,0.00,,,0.01,,2013-05-20 04:02:00,
2013-05-20 00:33:00,61.0,55.0,-100.00,ESE,123,0.0,0.0,80,0.00,,,0.01,,2013-05-20 04:33:00,
2013-05-20 00:43:00,61.0,55.0,-100.00,ESE,123,0.0,0.0,80,0.00,,,0.01,,2013-05-20 04:43:00,
2013-05-20 00:53:00,61.0,55.0,-100.00,ESE,123,0.0,0.0,80,0.00,,,0.01,,2013-05-20 04:53:00,
2013-05-20 01:02:00,61.0,55.0,-100.00,ESE,123,0.0,0.0,80,0.00,,,0.01,,2013-05-20 05:02:00,
2013-05-20 01:32:00,60.0,54.0,-100.00,ESE,104,0.0,0.0,81,0.00,,,0.01,,2013-05-20 05:32:00,
2013-05-20 01:42:00,60.0,54.0,-100.00,ESE,104,0.0,0.0,81,0.00,,,0.01,,2013-05-20 05:42:00,
2013-05-20 01:52:00,60.0,54.0,-100.00,ESE,104,0.0,0.0,81,0.00,,,0.01,,2013-05-20 05:52:00,
2013-05-20 02:01:00,60.0,54.0,-100.00,ESE,104,0.0,0.0,81,0.00,,,0.01,,2013-05-20 06:01:00,
2013-05-20 02:32:00,58.0,54.0,-100.00,ESE,102,1.0,1.0,86,0.00,,,0.01,,2013-05-20 06:32:00,
2013-05-20 02:42:00,58.0,54.0,-100.00,ESE,102,1.0,1.0,86,0.00,,,0.01,,2013-05-20 06:42:00,
2013-05-20 02:52:00,58.0,54.0,-100.00,ESE,102,1.0,1.0,86,0.00,,,0.01,,2013-05-20 06:52:00,
2013-05-20 03:01:00,58.0,54.0,-100.00,ESE,102,1.0,1.0,86,0.00,,,0.01,,2013-05-20 07:01:00,
2013-05-20 03:32:00,61.0,54.0,-100.00,East,92,0.0,0.0,79,0.00,,,0.01,,2013-05-20 07:32:00,
2013-05-20 03:42:00,61.0,54.0,-100.00,East,92,0.0,0.0,79,0.00,,,0.01,,2013-05-20 07:42:00,
2013-05-20 03:52:00,61.0,54.0,-100.00,East,92,0.0,0.0,79,0.00,,,0.01,,2013-05-20 07:52:00,
2013-05-20 04:01:00,61.0,54.0,-100.00,East,92,0.0,0.0,79,0.00,,,0.01,,2013-05-20 08:01:00,
2013-05-20 04:32:00,61.0,53.0,-100.00,East,98,0.0,1.0,76,0.00,,,0.01,,2013-05-20 08:32:00,
2013-05-20 04:42:00,61.0,53.0,-100.00,East,98,0.0,1.0,76,0.00,,,0.01,,2013-05-20 08:42:00,
2013-05-20 04:52:00,61.0,53.0,-100.00,East,98,0.0,1.0,76,0.00,,,0.01,,2013-05-20 08:52:00,
2013-05-20 05:02:00,61.0,53.0,-100.00,East,98,0.0,1.0,76,0.00,,,0.01,,2013-05-20 09:02:00,
2013-05-20 05:33:00,61.0,52.0,-100.00,ESE,103,0.0,2.0,72,0.00,,,0.01,,2013-05-20 09:33:00,
2013-05-20 05:43:00,61.0,52.0,-100.00,ESE,103,0.0,2.0,72,0.00,,,0.01,,2013-05-20 09:43:00,
2013-05-20 05:53:00,61.0,52.0,-100.00,ESE,103,0.0,2.0,72,0.00,,,0.01,,2013-05-20 09:53:00,
2013-05-20 06:03:00,61.0,52.0,-100.00,ESE,103,0.0,2.0,72,0.00,,,0.01,,2013-05-20 10:03:00,
2013-05-20 06:22:00,61.0,51.0,-100.00,ESE,114,0.0,0.0,70,0.00,,,0.01,,2013-05-20 10:22:00,
2013-05-20 06:33:00,61.0,51.0,-100.00,ESE,114,0.0,0.0,70,0.00,,,0.01,,2013-05-20 10:33:00,
2013-05-20 06:42:00,61.0,51.0,-100.00,ESE,114,0.0,0.0,70,0.00,,,0.01,,2013-05-20 10:42:00,
2013-05-20 06:52:00,61.0,51.0,-100.00,ESE,114,0.0,0.0,70,0.00,,,0.01,,2013-05-20 10:52:00,
2013-05-20 07:02:00,61.0,51.0,-100.00,ESE,114,0.0,0.0,70,0.00,,,0.01,,2013-05-20 11:02:00,
2013-05-20 07:32:00,60.0,51.0,-100.00,ESE,115,0.0,0.0,71,0.00,,,0.01,,2013-05-20 11:32:00,
2013-05-20 07:42:00,60.0,51.0,-100.00,ESE,115,0.0,0.0,71,0.00,,,0.01,,2013-05-20 11:42:00,
2013-05-20 07:52:00,60.0,51.0,-100.00,ESE,115,0.0,0.0,71,0.00,,,0.01,,2013-05-20 11:52:00,
2013-05-20 08:01:00,60.0,51.0,-100.00,ESE,115,0.0,0.0,71,0.00,,,0.01,,2013-05-20 12:01:00,
2013-05-20 08:32:00,59.0,55.0,-100.00,SE,143,0.0,2.0,86,0.03,,,0.04,,2013-05-20 12:32:00,
2013-05-20 08:42:00,59.0,55.0,-100.00,SE,143,0.0,2.0,86,0.03,,,0.04,,2013-05-20 12:42:00,
2013-05-20 08:52:00,59.0,55.0,-100.00,SE,143,0.0,2.0,86,0.03,,,0.04,,2013-05-20 12:52:00,
2013-05-20 09:01:00,59.0,55.0,-100.00,SE,143,0.0,2.0,86,0.03,,,0.04,,2013-05-20 13:01:00,
2013-05-20 10:32:00,59.0,57.0,-100.00,SE,141,0.0,0.0,93,-99.99,,,0.09,,2013-05-20 14:32:00,
2013-05-20 10:42:00,59.0,57.0,-100.00,SE,141,0.0,0.0,93,-99.99,,,0.09,,2013-05-20 14:42:00,
2013-05-20 10:52:00,59.0,57.0,-100.00,SE,141,0.0,0.0,93,-99.99,,,0.09,,2013-05-20 14:52:00,
2013-05-20 11:01:00,59.0,57.0,-100.00,SE,141,0.0,0.0,93,-99.99,,,0.09,,2013-05-20 15:01:00,
2013-05-20 11:33:00,60.0,57.0,-100.00,SE,132,0.0,0.0,91,0.00,,,-99.99,,2013-05-20 15:33:00,
2013-05-20 11:42:00,60.0,57.0,-100.00,SE,132,0.0,0.0,91,0.00,,,-99.99,,2013-05-20 15:42:00,
2013-05-20 11:53:00,60.0,57.0,-100.00,SE,132,0.0,0.0,91,0.00,,,-99.99,,2013-05-20 15:53:00,
2013-05-20 12:03:00,60.0,57.0,-100.00,SE,132,0.0,0.0,91,0.00,,,-99.99,,2013-05-20 16:03:00,
2013-05-20 12:33:00,60.0,57.0,-100.00,ESE,123,0.0,1.0,91,0.00,,,0.09,,2013-05-20 16:33:00,
2013-05-20 12:42:00,60.0,57.0,-100.00,ESE,123,0.0,1.0,91,0.00,,,0.09,,2013-05-20 16:42:00,
2013-05-20 12:53:00,60.0,57.0,-100.00,ESE,123,0.0,1.0,91,0.00,,,0.09,,2013-05-20 16:53:00,
2013-05-20 13:02:00,60.0,57.0,-100.00,ESE,123,0.0,1.0,91,0.00,,,0.09,,2013-05-20 17:02:00,
2013-05-20 13:33:00,59.0,58.0,-100.00,ESE,119,0.0,0.0,95,0.30,,,0.39,,2013-05-20 17:33:00,
2013-05-20 13:45:00,59.0,58.0,-100.00,ESE,119,0.0,0.0,95,0.30,,,0.39,,2013-05-20 17:45:00,
2013-05-20 13:53:00,59.0,58.0,-100.00,ESE,119,0.0,0.0,95,0.30,,,0.39,,2013-05-20 17:53:00,
2013-05-20 14:02:00,59.0,58.0,-100.00,ESE,119,0.0,0.0,95,0.30,,,0.39,,2013-05-20 18:02:00,
2013-05-20 14:04:00,59.0,57.0,-100.00,ESE,115,0.0,0.0,94,0.00,,,0.39,,2013-05-20 18:04:00,
2013-05-20 14:33:00,59.0,57.0,-100.00,ESE,115,0.0,0.0,94,0.00,,,0.39,,2013-05-20 18:33:00,
2013-05-20 14:42:00,59.0,57.0,-100.00,ESE,115,0.0,0.0,94,0.00,,,0.39,,2013-05-20 18:42:00,
2013-05-20 14:55:00,59.0,57.0,-100.00,ESE,115,0.0,0.0,94,0.00,,,0.39,,2013-05-20 18:55:00,
2013-05-20 15:33:00,58.0,57.0,-100.00,SE,129,0.0,0.0,97,0.62,,,1.01,,2013-05-20 19:33:00,
2013-05-20 15:42:00,58.0,57.0,-100.00,SE,129,0.0,0.0,97,0.62,,,1.01,,2013-05-20 19:42:00,
2013-05-20 15:52:00,58.0,57.0,-100.00,SE,129,0.0,0.0,97,0.62,,,1.01,,2013-05-20 19:52:00,
2013-05-20 16:01:00,58.0,57.0,-100.00,SE,129,0.0,0.0,97,0.62,,,1.01,,2013-05-20 20:01:00,
2013-05-20 16:32:00,62.0,59.0,-100.00,SE,134,0.0,1.0,90,0.00,,,1.01,,2013-05-20 20:32:00,
2013-05-20 16:42:00,62.0,59.0,-100.00,SE,134,0.0,1.0,90,0.00,,,1.01,,2013-05-20 20:42:00,
2013-05-20 16:52:00,62.0,59.0,-100.00,SE,134,0.0,1.0,90,0.00,,,1.01,,2013-05-20 20:52:00,
2013-05-20 17:01:00,62.0,59.0,-100.00,SE,134,0.0,1.0,90,0.00,,,1.01,,2013-05-20 21:01:00,
2013-05-20 17:33:00,63.0,59.0,-100.00,SE,135,1.0,11.0,88,0.00,,,1.01,,2013-05-20 21:33:00,
2013-05-20 17:43:00,63.0,59.0,-100.00,SE,135,1.0,11.0,88,0.00,,,1.01,,2013-05-20 21:43:00,
2013-05-20 17:53:00,63.0,59.0,-100.00,SE,135,1.0,11.0,88,0.00,,,1.01,,2013-05-20 21:53:00,
2013-05-20 18:02:00,63.0,59.0,-100.00,SE,135,1.0,11.0,88,0.00,,,1.01,,2013-05-20 22:02:00,
2013-05-20 18:33:00,62.0,59.0,-100.00,ESE,117,1.0,6.0,90,0.00,,,1.01,,2013-05-20 22:33:00,
2013-05-20 18:42:00,62.0,59.0,-100.00,ESE,117,1.0,6.0,90,0.00,,,1.01,,2013-05-20 22:42:00,
2013-05-20 18:52:00,62.0,59.0,-100.00,ESE,117,1.0,6.0,90,0.00,,,1.01,,2013-05-20 22:52:00,
2013-05-20 19:02:00,62.0,59.0,-100.00,ESE,117,1.0,6.0,90,0.00,,,1.01,,2013-05-20 23:02:00,
2013-05-20 19:22:00,64.0,59.0,-100.00,ESE,123,0.0,11.0,85,0.00,,,1.01,,2013-05-20 23:22:00,
2013-05-20 19:32:00,64.0,59.0,-100.00,ESE,123,0.0,11.0,85,0.00,,,1.01,,2013-05-20 23:32:00,
2013-05-20 19:42:00,64.0,59.0,-100.00,ESE,123,0.0,11.0,85,0.00,,,1.01,,2013-05-20 23:42:00,
2013-05-20 19:53:00,64.0,59.0,-100.00,ESE,123,0.0,11.0,85,0.00,,,1.01,,2013-05-20 23:53:00,
2013-05-20 20:01:00,64.0,59.0,-100.00,ESE,123,0.0,11.0,85,0.00,,,1.01,,2013-05-21 00:01:00,
2013-05-20 20:22:00,64.0,60.0,-100.00,SE,130,0.0,2.0,86,0.00,,,1.01,,2013-05-21 00:22:00,
2013-05-20 20:32:00,64.0,60.0,-100.00,SE,130,0.0,2.0,86,0.00,,,1.01,,2013-05-21 00:32:00,
2013-05-20 20:42:00,64.0,60.0,-100.00,SE,130,0.0,2.0,86,0.00,,,1.01,,2013-05-21 00:42:00,
2013-05-20 20:52:00,64.0,60.0,-100.00,SE,130,0.0,2.0,86,0.00,,,1.01,,2013-05-21 00:52:00,
2013-05-20 21:01:00,64.0,60.0,-100.00,SE,130,0.0,2.0,86,0.00,,,1.01,,2013-05-21 01:01:00,
2013-05-20 21:22:00,63.0,59.0,-100.00,SE,127,1.0,5.0,88,0.00,,,1.01,,2013-05-21 01:22:00,
2013-05-20 21:32:00,63.0,59.0,-100.00,SE,127,1.0,5.0,88,0.00,,,1.01,,2013-05-21 01:32:00,
2013-05-20 21:42:00,63.0,59.0,-100.00,SE,127,1.0,5.0,88,0.00,,,1.01,,2013-05-21 01:42:00,
2013-05-20 21:53:00,63.0,59.0,-100.00,SE,127,1.0,5.0,88,0.00,,,1.01,,2013-05-21 01:53:00,
2013-05-20 22:02:00,63.0,59.0,-100.00,SE,127,1.0,5.0,88,0.00,,,1.01,,2013-05-21 02:02:00,
2013-05-20 22:32:00,61.0,59.0,-100.00,ESE,117,1.0,10.0,94,0.00,,,1.01,,2013-05-21 02:32:00,
2013-05-20 22:42:00,61.0,59.0,-100.00,ESE,117,1.0,10.0,94,0.00,,,1.01,,2013-05-21 02:42:00,
2013-05-20 22:52:00,61.0,59.0,-100.00,ESE,117,1.0,10.0,94,0.00,,,1.01,,2013-05-21 02:52:00,
2013-05-20 23:02:00,61.0,59.0,-100.00,ESE,117,1.0,10.0,94,0.00,,,1.01,,2013-05-21 03:02:00,
2013-05-20 23:21:00,59.0,58.0,-100.00,ESE,118,0.0,4.0,95,0.00,,,1.01,,2013-05-21 03:21:00,
2013-05-20 23:33:00,59.0,58.0,-100.00,ESE,118,0.0,4.0,95,0.00,,,1.01,,2013-05-21 03:33:00,
2013-05-20 23:43:00,59.0,58.0,-100.00,ESE,118,0.0,4.0,95,0.00,,,1.01,,2013-05-21 03:43:00,
2013-05-20 23:53:00,59.0,58.0,-100.00,ESE,118,0.0,4.0,95,0.00,,,1.01,,2013-05-21 03:53:00,